createdAt,value
2022-10-20T00:01:07.470Z,7.88
2022-10-20T00:03:33.930Z,7.89
2022-10-20T00:06:10.904Z,7.85
2022-10-20T00:08:37.726Z,8.00
2022-10-20T00:11:04.444Z,8.02
2022-10-20T00:13:30.924Z,7.90
2022-10-20T00:15:58.055Z,8.08
2022-10-20T00:18:24.539Z,8.02
2022-10-20T00:20:51.427Z,8.02
2022-10-20T00:23:17.883Z,7.99
2022-10-20T00:25:44.320Z,8.02
2022-10-20T00:28:10.816Z,7.87
2022-10-20T00:30:37.422Z,7.71
2022-10-20T00:33:04.085Z,7.74
2022-10-20T00:35:30.913Z,7.63
2022-10-20T00:37:57.463Z,7.57
2022-10-20T00:40:24.195Z,7.54
2022-10-20T00:42:50.594Z,7.60
2022-10-20T00:45:18.036Z,7.75
2022-10-20T00:47:57.722Z,7.79
2022-10-20T00:50:31.752Z,7.65
2022-10-20T00:52:58.214Z,7.66
2022-10-20T00:55:25.939Z,7.77
2022-10-20T00:57:52.835Z,7.74
2022-10-20T01:00:19.295Z,7.74
2022-10-20T01:02:45.910Z,7.84
2022-10-20T01:05:12.754Z,8.05
2022-10-20T01:07:39.418Z,8.08
2022-10-20T01:10:06.259Z,8.22
2022-10-20T01:12:32.665Z,8.40
2022-10-20T01:15:02.560Z,8.46
2022-10-20T01:17:38.522Z,8.49
2022-10-20T01:20:11.224Z,8.55
2022-10-20T01:22:55.662Z,8.55
2022-10-20T01:25:34.386Z,8.83
2022-10-20T01:28:03.857Z,8.85
2022-10-20T01:30:30.585Z,9.06
2022-10-20T01:33:04.396Z,9.11
2022-10-20T01:35:42.587Z,9.42
2022-10-20T01:38:15.226Z,9.41
2022-10-20T01:40:46.190Z,9.57
2022-10-20T01:43:13.265Z,9.54
2022-10-20T01:45:40.135Z,9.63
2022-10-20T01:48:06.932Z,9.57
2022-10-20T01:50:33.938Z,9.87
2022-10-20T01:53:00.474Z,9.75
2022-10-20T01:55:26.903Z,9.84
2022-10-20T01:58:12.103Z,9.86
2022-10-20T02:00:38.540Z,9.84
2022-10-20T02:03:04.912Z,9.91
2022-10-20T02:05:54.613Z,9.94
2022-10-20T02:08:28.604Z,10.00
2022-10-20T02:10:56.565Z,9.81
2022-10-20T02:13:22.979Z,9.62
2022-10-20T02:15:51.232Z,9.47
2022-10-20T02:18:22.462Z,9.36
2022-10-20T02:20:49.391Z,9.32
2022-10-20T02:23:15.928Z,9.28
2022-10-20T02:25:42.592Z,9.26
2022-10-20T02:28:09.456Z,9.21
2022-10-20T02:30:35.912Z,9.12
2022-10-20T02:33:02.399Z,9.11
2022-10-20T02:35:32.853Z,9.05
2022-10-20T02:37:59.306Z,9.04
2022-10-20T02:40:25.964Z,9.16
2022-10-20T02:42:52.442Z,9.35
2022-10-20T02:45:18.915Z,9.36
2022-10-20T02:47:45.391Z,9.23
2022-10-20T02:50:11.809Z,9.15
2022-10-20T02:52:38.406Z,9.16
2022-10-20T02:55:05.458Z,9.26
2022-10-20T02:57:31.919Z,9.23
2022-10-20T02:59:58.314Z,9.22
2022-10-20T03:02:24.774Z,9.19
2022-10-20T03:04:51.163Z,9.19
2022-10-20T03:07:17.648Z,9.14
2022-10-20T03:09:44.380Z,9.02
2022-10-20T03:12:10.864Z,8.96
2022-10-20T03:14:37.279Z,8.90
2022-10-20T03:17:03.796Z,8.87
2022-10-20T03:19:30.207Z,8.83
2022-10-20T03:21:56.631Z,8.78
2022-10-20T03:24:23.001Z,8.76
2022-10-20T03:26:49.388Z,8.72
2022-10-20T03:29:15.806Z,8.74
2022-10-20T03:31:42.334Z,8.80
2022-10-20T03:34:08.899Z,8.79
2022-10-20T03:36:35.275Z,8.81
2022-10-20T03:39:01.679Z,8.76
2022-10-20T03:41:28.072Z,8.70
2022-10-20T03:43:54.505Z,8.69
2022-10-20T03:46:20.939Z,8.80
2022-10-20T03:48:47.394Z,8.80
2022-10-20T03:51:13.968Z,8.73
2022-10-20T03:53:40.559Z,8.65
2022-10-20T03:56:07.833Z,8.63
2022-10-20T03:58:34.776Z,8.61
2022-10-20T04:01:01.409Z,8.58
2022-10-20T04:03:27.826Z,8.57
2022-10-20T04:05:54.213Z,8.68
2022-10-20T04:08:20.647Z,8.69
2022-10-20T04:10:47.043Z,8.69
2022-10-20T04:13:13.460Z,8.66
2022-10-20T04:15:39.863Z,8.65
2022-10-20T04:18:06.304Z,8.64
2022-10-20T04:20:32.693Z,8.65
2022-10-20T04:22:59.131Z,8.55
2022-10-20T04:25:25.534Z,8.44
2022-10-20T04:27:51.939Z,8.47
2022-10-20T04:30:18.376Z,8.52
2022-10-20T04:32:44.830Z,8.56
2022-10-20T04:35:11.232Z,8.64
2022-10-20T04:37:37.970Z,8.71
2022-10-20T04:40:04.772Z,8.92
2022-10-20T04:42:31.226Z,8.71
2022-10-20T04:47:32.883Z,9.19
2022-10-20T04:49:59.319Z,9.38
2022-10-20T04:52:25.748Z,9.74
2022-10-20T04:54:52.161Z,9.95
2022-10-20T04:57:18.578Z,10.08
2022-10-20T04:59:45.695Z,10.10
2022-10-20T05:02:12.140Z,10.11
2022-10-20T05:04:38.527Z,10.18
2022-10-20T05:07:04.948Z,10.28
2022-10-20T05:09:32.890Z,10.37
2022-10-20T05:11:59.588Z,10.42
2022-10-20T05:14:25.992Z,10.46
2022-10-20T05:16:52.422Z,10.50
2022-10-20T05:19:18.867Z,10.41
2022-10-20T05:21:45.317Z,10.44
2022-10-20T05:24:14.422Z,10.46
2022-10-20T05:26:44.482Z,10.47
2022-10-20T05:29:11.359Z,10.43
2022-10-20T05:31:38.792Z,10.43
2022-10-20T05:34:05.323Z,10.38
2022-10-20T05:36:32.036Z,10.36
2022-10-20T05:38:58.485Z,10.40
2022-10-20T05:41:26.318Z,10.45
2022-10-20T05:43:53.935Z,10.50
2022-10-20T05:46:20.458Z,10.55
2022-10-20T05:48:47.124Z,10.55
2022-10-20T05:51:15.268Z,10.57
2022-10-20T05:53:42.238Z,10.53
2022-10-20T05:56:09.728Z,10.54
2022-10-20T05:58:36.427Z,10.59
2022-10-20T06:01:09.952Z,10.58
2022-10-20T06:03:36.589Z,10.52
2022-10-20T06:06:03.259Z,10.51
2022-10-20T06:08:32.742Z,10.55
2022-10-20T06:11:03.738Z,10.56
2022-10-20T06:13:30.651Z,10.51
2022-10-20T06:16:01.140Z,10.51
2022-10-20T06:18:27.566Z,10.54
2022-10-20T06:21:03.886Z,10.57
2022-10-20T06:23:30.492Z,10.51
2022-10-20T06:26:01.369Z,10.52
2022-10-20T06:28:29.059Z,10.48
2022-10-20T06:30:55.446Z,10.53
2022-10-20T06:33:21.860Z,10.48
2022-10-20T06:35:48.286Z,10.55
2022-10-20T06:38:14.684Z,10.58
2022-10-20T06:40:41.056Z,10.65
2022-10-20T06:43:07.472Z,10.68
2022-10-20T06:45:33.916Z,10.74
2022-10-20T06:48:00.350Z,10.75
2022-10-20T06:50:26.873Z,10.74
2022-10-20T06:52:53.363Z,10.81
2022-10-20T06:55:19.816Z,10.80
2022-10-20T06:57:46.255Z,10.84
2022-10-20T07:00:12.852Z,10.79
2022-10-20T07:02:39.808Z,10.81
2022-10-20T07:05:06.403Z,10.92
2022-10-20T07:07:32.905Z,10.95
2022-10-20T07:09:59.584Z,10.96
2022-10-20T07:12:26.015Z,10.91
2022-10-20T07:14:52.439Z,10.98
2022-10-20T07:17:18.902Z,10.95
2022-10-20T07:19:45.275Z,11.01
2022-10-20T07:22:11.731Z,11.06
2022-10-20T07:24:38.192Z,11.11
2022-10-20T07:27:04.631Z,11.10
2022-10-20T07:29:31.660Z,11.13
2022-10-20T07:31:59.999Z,11.10
2022-10-20T07:34:28.396Z,11.06
2022-10-20T07:36:55.176Z,10.98
2022-10-20T07:39:21.604Z,10.88
2022-10-20T07:41:48.710Z,10.90
2022-10-20T07:44:15.316Z,10.95
2022-10-20T07:46:41.853Z,10.87
2022-10-20T07:51:54.734Z,10.67
2022-10-20T07:54:21.174Z,10.56
2022-10-20T07:56:47.828Z,10.54
2022-10-20T07:59:14.403Z,10.45
2022-10-20T08:01:41.011Z,10.55
2022-10-20T08:04:07.528Z,10.61
2022-10-20T08:06:34.009Z,10.67
2022-10-20T08:09:00.644Z,10.65
2022-10-20T08:11:27.525Z,10.67
2022-10-20T08:13:53.963Z,10.67
2022-10-20T08:16:24.839Z,10.71
2022-10-20T08:18:58.103Z,10.66
2022-10-20T08:21:25.228Z,11.09
2022-10-20T08:23:51.702Z,10.99
2022-10-20T08:26:20.257Z,11.11
2022-10-20T08:28:47.115Z,11.29
2022-10-20T08:31:13.485Z,11.15
2022-10-20T08:33:41.030Z,11.08
2022-10-20T08:36:08.820Z,11.16
2022-10-20T08:38:35.542Z,11.02
2022-10-20T08:41:02.051Z,11.01
2022-10-20T08:43:28.612Z,10.91
2022-10-20T08:45:55.007Z,11.06
2022-10-20T08:48:25.798Z,10.97
2022-10-20T08:50:52.758Z,10.91
2022-10-20T08:53:20.022Z,11.15
2022-10-20T08:55:46.782Z,11.18
2022-10-20T08:58:17.625Z,11.26
2022-10-20T09:00:44.096Z,11.36
2022-10-20T09:03:13.729Z,11.36
2022-10-20T09:05:40.791Z,11.30
2022-10-20T09:08:07.920Z,11.56
2022-10-20T09:10:38.676Z,11.86
2022-10-20T09:13:11.678Z,11.70
2022-10-20T09:15:38.059Z,11.81
2022-10-20T09:18:06.656Z,11.82
2022-10-20T09:20:36.070Z,11.75
2022-10-20T09:23:07.954Z,11.86
2022-10-20T09:25:43.595Z,11.97
2022-10-20T09:28:16.995Z,11.82
2022-10-20T09:30:45.694Z,11.75
2022-10-20T09:33:29.117Z,11.97
2022-10-20T09:35:57.593Z,11.98
2022-10-20T09:38:26.579Z,12.21
2022-10-20T09:40:59.140Z,12.50
2022-10-20T09:43:25.542Z,12.35
2022-10-20T09:45:56.586Z,12.37
2022-10-20T09:48:28.939Z,12.44
2022-10-20T09:50:56.141Z,12.47
2022-10-20T09:53:27.254Z,12.40
2022-10-20T09:55:53.655Z,12.38
2022-10-20T09:58:30.802Z,12.25
2022-10-20T10:00:59.078Z,12.33
2022-10-20T10:03:25.770Z,12.16
2022-10-20T10:05:53.253Z,12.18
2022-10-20T10:08:20.587Z,12.17
2022-10-20T10:10:58.226Z,12.11
2022-10-20T10:13:26.613Z,12.15
2022-10-20T10:16:04.289Z,12.15
2022-10-20T10:18:30.797Z,12.22
2022-10-20T10:21:00.388Z,12.24
2022-10-20T10:23:27.022Z,12.19
2022-10-20T10:25:53.551Z,11.86
2022-10-20T10:28:20.048Z,11.95
2022-10-20T10:30:49.432Z,11.62
2022-10-20T10:33:26.960Z,11.52
2022-10-20T10:35:53.414Z,11.57
2022-10-20T10:38:19.839Z,11.63
2022-10-20T10:40:55.486Z,11.57
2022-10-20T10:43:29.747Z,11.57
2022-10-20T10:46:09.400Z,11.42
2022-10-20T10:48:38.827Z,11.29
2022-10-20T10:51:06.866Z,11.35
2022-10-20T10:53:33.254Z,11.39
2022-10-20T10:58:46.867Z,11.67
2022-10-20T11:01:13.300Z,11.75
2022-10-20T11:03:39.933Z,11.88
2022-10-20T11:06:12.875Z,12.07
2022-10-20T11:08:45.862Z,12.05
2022-10-20T11:11:27.644Z,12.40
2022-10-20T11:13:54.068Z,12.75
2022-10-20T11:16:20.480Z,12.86
2022-10-20T11:19:08.044Z,12.94
2022-10-20T11:21:37.482Z,12.63
2022-10-20T11:24:16.138Z,12.42
2022-10-20T11:26:52.198Z,12.78
2022-10-20T11:29:29.026Z,13.31
2022-10-20T11:31:57.429Z,13.86
2022-10-20T11:34:26.249Z,14.19
2022-10-20T11:37:11.555Z,14.34
2022-10-20T11:39:39.700Z,14.21
2022-10-20T11:42:35.962Z,14.31
2022-10-20T11:45:19.496Z,13.76
2022-10-20T11:47:46.478Z,13.62
2022-10-20T11:50:13.006Z,13.43
2022-10-20T11:52:39.650Z,13.23
2022-10-20T11:55:12.347Z,13.16
2022-10-20T11:57:45.199Z,13.19
2022-10-20T12:02:51.981Z,13.10
2022-10-20T12:05:37.267Z,13.07
2022-10-20T12:08:29.839Z,13.02
2022-10-20T12:11:06.348Z,12.98
2022-10-20T12:13:39.036Z,13.14
2022-10-20T12:16:05.572Z,13.33
2022-10-20T12:18:32.660Z,13.46
2022-10-20T12:21:01.521Z,13.37
2022-10-20T12:23:43.598Z,13.31
2022-10-20T12:26:28.747Z,13.11
2022-10-20T12:29:01.772Z,12.87
2022-10-20T12:31:47.087Z,12.62
2022-10-20T12:34:22.974Z,12.66
2022-10-20T12:36:49.394Z,12.32
2022-10-20T12:39:16.999Z,12.29
2022-10-20T12:41:45.848Z,12.25
2022-10-20T12:44:15.834Z,12.10
2022-10-20T12:46:43.352Z,12.01
2022-10-20T12:49:11.934Z,11.91
2022-10-20T12:51:40.848Z,11.69
2022-10-20T12:54:21.452Z,11.74
2022-10-20T12:56:47.948Z,11.65
2022-10-20T12:59:22.535Z,11.62
2022-10-20T13:02:07.868Z,11.54
2022-10-20T13:04:53.900Z,11.52
2022-10-20T13:07:39.186Z,11.52
2022-10-20T13:10:24.835Z,11.52
2022-10-20T13:12:51.261Z,11.46
2022-10-20T13:15:18.048Z,11.49
2022-10-20T13:17:57.858Z,11.39
2022-10-20T13:20:29.226Z,11.30
2022-10-20T13:22:55.845Z,11.26
2022-10-20T13:25:33.180Z,11.22
2022-10-20T13:28:03.799Z,11.16
2022-10-20T13:30:30.790Z,11.20
2022-10-20T13:36:07.975Z,11.25
2022-10-20T13:38:48.120Z,11.32
2022-10-20T13:41:14.520Z,11.33
2022-10-20T13:43:56.705Z,11.31
2022-10-20T13:46:32.379Z,11.31
2022-10-20T13:49:01.893Z,11.27
2022-10-20T13:51:29.304Z,11.25
2022-10-20T13:53:56.757Z,11.26
2022-10-20T13:56:43.436Z,11.20
2022-10-20T13:59:19.079Z,11.21
2022-10-20T14:01:46.580Z,11.15
2022-10-20T14:04:30.050Z,11.15
2022-10-20T14:06:58.880Z,11.16
2022-10-20T14:09:25.641Z,11.21
2022-10-20T14:12:15.381Z,11.30
2022-10-20T14:14:45.008Z,11.36
2022-10-20T14:17:21.529Z,11.36
2022-10-20T14:19:47.930Z,11.34
2022-10-20T14:22:24.198Z,11.42
2022-10-20T14:24:51.973Z,11.37
2022-10-20T14:27:22.258Z,11.38
2022-10-20T14:29:48.793Z,11.30
2022-10-20T14:32:19.884Z,11.35
2022-10-20T14:35:12.847Z,11.37
2022-10-20T14:37:40.070Z,11.43
2022-10-20T14:40:23.316Z,11.36
2022-10-20T14:42:49.777Z,11.33
2022-10-20T14:45:23.400Z,11.32
2022-10-20T14:47:49.907Z,11.31
2022-10-20T14:50:36.255Z,11.22
2022-10-20T14:53:21.738Z,11.26
2022-10-20T14:55:48.279Z,11.14
2022-10-20T14:58:37.489Z,11.21
2022-10-20T15:01:18.459Z,11.17
2022-10-20T15:03:44.985Z,11.13
2022-10-20T15:06:15.179Z,11.08
2022-10-20T15:08:52.228Z,11.12
2022-10-20T15:11:22.983Z,11.14
2022-10-20T15:13:53.348Z,11.13
2022-10-20T15:16:35.808Z,11.12
2022-10-20T15:19:16.842Z,11.14
2022-10-20T15:21:43.273Z,11.14
2022-10-20T15:24:09.676Z,11.10
2022-10-20T15:26:36.155Z,11.12
2022-10-20T15:29:02.584Z,11.10
2022-10-20T15:31:29.369Z,11.11
2022-10-20T15:33:56.546Z,11.06
2022-10-20T15:36:28.243Z,11.08
2022-10-20T15:38:54.667Z,11.08
2022-10-20T15:41:21.922Z,11.09
2022-10-20T15:43:48.417Z,11.08
2022-10-20T15:46:15.870Z,11.05
2022-10-20T15:48:43.285Z,11.06
2022-10-20T15:51:11.444Z,11.06
2022-10-20T15:53:37.880Z,11.07
2022-10-20T15:56:04.401Z,11.07
2022-10-20T15:58:30.793Z,11.07
2022-10-20T16:00:57.228Z,11.07
2022-10-20T16:03:23.677Z,11.13
2022-10-20T16:05:50.073Z,11.09
2022-10-20T16:08:16.543Z,11.10
2022-10-20T16:10:43.659Z,11.12
2022-10-20T16:13:11.152Z,11.17
2022-10-20T16:15:37.575Z,11.16
2022-10-20T16:18:07.234Z,11.21
2022-10-20T16:20:36.098Z,11.19
2022-10-20T16:23:02.531Z,11.23
2022-10-20T16:25:28.980Z,11.29
2022-10-20T16:27:55.400Z,11.27
2022-10-20T16:30:21.804Z,11.28
2022-10-20T16:32:48.332Z,11.32
2022-10-20T16:35:14.812Z,11.35
2022-10-20T16:37:41.278Z,11.34
2022-10-20T16:40:07.905Z,11.29
2022-10-20T16:42:34.359Z,11.22
2022-10-20T16:45:00.752Z,11.20
2022-10-20T16:47:27.258Z,11.14
2022-10-20T16:49:53.791Z,11.17
2022-10-20T16:52:20.252Z,11.21
2022-10-20T16:54:46.636Z,11.21
2022-10-20T16:57:13.367Z,11.16
2022-10-20T16:59:39.869Z,11.16
2022-10-20T17:02:06.276Z,11.12
2022-10-20T17:04:32.714Z,11.14
2022-10-20T17:06:59.147Z,11.14
2022-10-20T17:09:25.628Z,11.12
2022-10-20T17:11:52.060Z,11.08
2022-10-20T17:14:18.500Z,11.02
2022-10-20T17:16:44.923Z,10.95
2022-10-20T17:19:11.379Z,10.94
2022-10-20T17:35:23.773Z,11.05
2022-10-20T17:37:50.205Z,11.02
2022-10-20T17:42:43.978Z,10.98
2022-10-20T17:45:10.544Z,10.98
2022-10-20T17:47:36.968Z,10.96
2022-10-20T17:50:03.509Z,10.89
2022-10-20T17:52:32.745Z,10.89
2022-10-20T17:54:59.162Z,10.94
2022-10-20T17:57:25.562Z,11.00
2022-10-20T17:59:54.015Z,11.03
2022-10-20T18:02:23.752Z,11.05
2022-10-20T18:04:50.583Z,10.99
2022-10-20T18:07:17.015Z,10.98
2022-10-20T18:09:44.024Z,10.92
2022-10-20T18:12:10.431Z,10.86
2022-10-20T18:14:36.884Z,10.82
2022-10-20T18:17:03.291Z,10.81
2022-10-20T18:19:29.743Z,10.84
2022-10-20T18:21:56.150Z,10.86
2022-10-20T18:24:22.574Z,10.85
2022-10-20T18:26:49.016Z,10.83
2022-10-20T18:29:16.407Z,10.80
2022-10-20T18:31:43.875Z,10.84
2022-10-20T18:34:14.775Z,10.80
2022-10-20T18:36:44.937Z,10.75
2022-10-20T18:39:13.055Z,10.81
2022-10-20T18:41:40.221Z,10.74
2022-10-20T18:44:08.253Z,10.70
2022-10-20T18:46:34.885Z,10.71
2022-10-20T18:49:03.502Z,10.73
2022-10-20T18:51:30.372Z,10.71
2022-10-20T18:53:57.479Z,10.73
2022-10-20T18:56:24.591Z,10.82
2022-10-20T18:58:52.358Z,10.78
2022-10-20T19:01:20.465Z,10.82
2022-10-20T19:03:47.823Z,10.82
2022-10-20T19:06:15.500Z,10.81
2022-10-20T19:08:42.104Z,10.85
2022-10-20T19:11:12.383Z,10.85
2022-10-20T19:13:39.072Z,10.93
2022-10-20T19:16:12.141Z,10.93
2022-10-20T19:18:41.536Z,10.97
2022-10-20T19:21:08.212Z,11.00
2022-10-20T19:23:35.691Z,11.02
2022-10-20T19:26:03.784Z,11.00
2022-10-20T19:28:30.840Z,10.95
2022-10-20T19:30:57.288Z,10.96
2022-10-20T19:33:23.690Z,10.97
2022-10-20T19:35:50.561Z,10.99
2022-10-20T19:38:17.623Z,10.99
2022-10-20T19:40:44.124Z,11.03
2022-10-20T19:43:11.164Z,11.03
2022-10-20T19:45:37.594Z,11.05
2022-10-20T19:48:04.240Z,11.04
2022-10-20T19:50:30.658Z,11.09
2022-10-20T19:52:58.827Z,11.07
2022-10-20T19:55:25.404Z,11.12
2022-10-20T19:57:51.844Z,11.19
2022-10-20T20:00:18.271Z,11.28
2022-10-20T20:02:44.679Z,11.36
2022-10-20T20:05:11.124Z,11.41
2022-10-20T20:07:37.910Z,11.57
2022-10-20T20:10:04.769Z,11.57
2022-10-20T20:12:31.161Z,11.62
2022-10-20T20:14:57.619Z,11.66
2022-10-20T20:17:24.046Z,11.67
2022-10-20T20:19:50.486Z,11.75
2022-10-20T20:22:16.977Z,11.77
2022-10-20T20:24:43.529Z,11.74
2022-10-20T20:27:10.878Z,11.74
2022-10-20T20:29:37.291Z,11.68
2022-10-20T20:32:03.756Z,11.66
2022-10-20T20:34:30.253Z,11.65
2022-10-20T20:36:56.652Z,11.66
2022-10-20T20:39:23.074Z,11.62
2022-10-20T20:41:49.556Z,11.63
2022-10-20T20:44:16.047Z,11.60
2022-10-20T20:46:42.475Z,11.64
2022-10-20T20:49:08.933Z,11.57
2022-10-20T20:51:35.490Z,11.60
2022-10-20T20:54:02.672Z,11.55
2022-10-20T20:56:29.175Z,11.53
2022-10-20T20:58:55.913Z,11.47
2022-10-20T21:01:23.414Z,11.49
2022-10-20T21:03:53.714Z,11.51
2022-10-20T21:06:22.978Z,11.50
2022-10-20T21:08:55.999Z,11.54
2022-10-20T21:11:26.228Z,11.49
2022-10-20T21:13:53.283Z,11.41
2022-10-20T21:16:20.844Z,11.44
2022-10-20T21:18:48.366Z,11.41
2022-10-20T21:21:15.954Z,11.42
2022-10-20T21:23:42.543Z,11.44
2022-10-20T21:26:09.532Z,11.41
2022-10-20T21:28:36.031Z,11.45
2022-10-20T21:31:06.107Z,11.45
2022-10-20T21:33:32.759Z,11.45
2022-10-20T21:36:05.539Z,11.49
2022-10-20T21:38:32.443Z,11.55
2022-10-20T21:41:05.775Z,11.59
2022-10-20T21:43:32.949Z,11.63
2022-10-20T21:46:15.696Z,11.63
2022-10-20T21:48:42.274Z,11.63
2022-10-20T21:51:09.504Z,11.66
2022-10-20T21:53:35.976Z,11.69
2022-10-20T21:56:02.437Z,11.75
2022-10-20T21:58:28.834Z,11.82
2022-10-20T22:00:56.327Z,11.87
2022-10-20T22:03:22.930Z,11.87
2022-10-20T22:05:49.422Z,11.85
2022-10-20T22:08:15.862Z,11.89
2022-10-20T22:10:42.287Z,11.90
2022-10-20T22:13:09.312Z,11.93
2022-10-20T22:15:39.519Z,11.93
2022-10-20T22:18:06.125Z,11.91
2022-10-20T22:20:34.969Z,11.93
2022-10-20T22:23:02.866Z,11.97
2022-10-20T22:25:29.506Z,12.02
2022-10-20T22:27:55.922Z,12.03
2022-10-20T22:30:22.365Z,12.07
2022-10-20T22:32:48.759Z,12.11
2022-10-20T22:35:15.232Z,12.09
2022-10-20T22:37:41.688Z,12.06
2022-10-20T22:40:08.610Z,12.07
2022-10-20T22:42:35.028Z,12.09
2022-10-20T22:45:01.507Z,12.09
2022-10-20T22:47:27.944Z,12.07
2022-10-20T22:49:54.374Z,12.00
2022-10-20T22:52:20.807Z,11.97
2022-10-20T22:54:47.252Z,11.98
2022-10-20T22:57:13.750Z,12.00
2022-10-20T22:59:40.184Z,12.03
2022-10-20T23:02:06.627Z,12.00
2022-10-20T23:04:33.027Z,12.05
2022-10-20T23:09:26.621Z,12.07
2022-10-20T23:11:53.055Z,12.07
2022-10-20T23:14:19.511Z,12.05
2022-10-20T23:16:46.074Z,12.11
2022-10-20T23:19:12.607Z,12.12
2022-10-20T23:21:39.092Z,12.06
2022-10-20T23:24:05.659Z,12.09
2022-10-20T23:26:32.307Z,12.10
2022-10-20T23:28:58.745Z,12.13
2022-10-20T23:31:25.199Z,12.08
2022-10-20T23:33:54.003Z,12.05
2022-10-20T23:36:20.447Z,12.07
2022-10-20T23:38:47.609Z,12.07
2022-10-20T23:41:14.310Z,12.08
2022-10-20T23:43:40.763Z,12.08
2022-10-20T23:46:07.280Z,12.03
2022-10-20T23:48:34.111Z,12.03
2022-10-20T23:51:00.572Z,12.05
2022-10-20T23:53:27.083Z,12.08
2022-10-20T23:55:53.750Z,12.11
2022-10-20T23:58:22.485Z,12.13
